Pagrindinis puslapis
METAR-TAF:

METAR-TAF

Oro uostai :

Odensė, Danija

platuma: 55-29N, ilguma: 010-20E, Aukštis: 17 m

Dabartinis oras

Ataskaita buvo paskelbta 4 valandos ir 39 minutes, ne 15:50 UTC
Vėjas 9 kt iš Pietvakarių, svyruoja nuo Pietų ir Vakarų/Pietvakarių
Temperatūra 19°C
Drėgmė 83%
Slėgis 1001 hPa
Matomumas 10 km arba daugiau
Mažai debesys ne aukštis 2800 ft
Su prošvaistėmis ne aukštis 3800 ft

METAR: EKOD 231550Z 22009KT 180V250 9999 FEW028 BKN038 19/16 Q1001

Laikas: 22:29 (20:29 UTC)

Prognozė

Ataskaita buvo paskelbta 8 valandos ir 28 minutes, ne 12:01 UTC
Prognozė galioja nuo 23 metu 12 UTC su 23 metu 17 UTC
Vėjas 12 kt iš Pietų/Pietvakarių
Matomumas 10 km arba daugiau
Išsisklaidę debesys ne aukštis 3000 ft

TAF: EKOD 231201Z 2312/2317 21012KT 9999 SCT030

Orai ataskaitas ir orų prognozės (METAR, TAF).

turimą stotys yra geltonos ir raudonos taškus žemėlapyje.

Perkelti pele per norėdami pamatyti stoties vardą.

Tada spustelėkite, norėdami matyti oro stebėjimo ir prognozės.

Norėdami pakeisti žemėlapį: spustelėkite ant žalios mygtukų su juodo kryžiaus žemyn,; žalią mygtuką su brūkšneliu, jei norite nutolinti; arba žalių rodyklių gretimoms žemėlapius.


METAR-TAF: